createdAt,value
2018-07-01T00:00:38.105Z,1.10
2018-07-01T00:03:08.362Z,1.47
2018-07-01T00:05:38.572Z,1.07
2018-07-01T00:08:08.872Z,1.27
2018-07-01T00:10:39.217Z,1.20
2018-07-01T00:13:09.449Z,1.00
2018-07-01T00:15:39.705Z,1.13
2018-07-01T00:18:09.996Z,1.13
2018-07-01T00:20:40.322Z,1.13
2018-07-01T00:23:10.488Z,1.13
2018-07-01T00:25:40.648Z,1.20
2018-07-01T00:28:10.889Z,1.00
2018-07-01T00:30:41.020Z,1.03
2018-07-01T00:33:11.296Z,1.00
2018-07-01T00:35:41.533Z,1.10
2018-07-01T00:38:11.760Z,1.10
2018-07-01T00:40:41.588Z,1.13
2018-07-01T00:43:11.839Z,1.10
2018-07-01T00:45:42.096Z,1.13
2018-07-01T00:48:12.389Z,1.10
2018-07-01T00:50:42.671Z,1.10
2018-07-01T00:53:12.929Z,0.90
2018-07-01T00:55:43.230Z,1.10
2018-07-01T00:58:13.486Z,1.10
2018-07-01T01:00:43.693Z,1.17
2018-07-01T01:03:13.909Z,1.27
2018-07-01T01:05:44.082Z,1.10
2018-07-01T01:08:14.264Z,1.00
2018-07-01T01:10:44.528Z,0.97
2018-07-01T01:13:14.716Z,1.20
2018-07-01T01:15:44.986Z,1.20
2018-07-01T01:18:15.166Z,1.10
2018-07-01T01:20:45.468Z,1.40
2018-07-01T01:23:15.775Z,1.40
2018-07-01T01:25:45.972Z,1.20
2018-07-01T01:28:15.948Z,1.10
2018-07-01T01:30:46.209Z,1.10
2018-07-01T01:33:16.411Z,1.07
2018-07-01T01:35:47.270Z,1.10
2018-07-01T01:38:17.811Z,1.17
2018-07-01T01:40:54.922Z,1.37
2018-07-01T01:43:35.766Z,1.00
2018-07-01T01:46:13.146Z,1.30
2018-07-01T01:48:50.999Z,1.17
2018-07-01T01:52:30.526Z,1.20
2018-07-01T01:55:11.635Z,1.00
2018-07-01T01:57:49.006Z,0.97
2018-07-01T02:00:29.751Z,1.07
2018-07-01T02:03:36.886Z,1.10
2018-07-01T02:06:11.983Z,1.07
2018-07-01T02:08:50.009Z,1.20
2018-07-01T02:11:20.352Z,1.10
2018-07-01T02:13:52.769Z,1.03
2018-07-01T02:16:28.723Z,1.03
2018-07-01T02:18:59.063Z,1.10
2018-07-01T02:21:29.525Z,1.20
2018-07-01T02:24:03.067Z,1.27
2018-07-01T02:26:33.809Z,1.10
2018-07-01T02:29:04.066Z,1.10
2018-07-01T02:31:34.234Z,1.40
2018-07-01T02:34:04.462Z,1.10
2018-07-01T02:36:34.708Z,1.23
2018-07-01T02:39:06.429Z,1.10
2018-07-01T02:41:36.646Z,1.07
2018-07-01T02:44:07.134Z,1.27
2018-07-01T02:46:37.346Z,1.00
2018-07-01T02:49:07.142Z,1.10
2018-07-01T02:51:37.360Z,0.80
2018-07-01T02:54:07.571Z,1.00
2018-07-01T02:56:37.828Z,0.90
2018-07-01T02:59:07.989Z,1.10
2018-07-01T03:01:38.203Z,1.10
2018-07-01T03:04:08.503Z,1.13
2018-07-01T03:06:38.808Z,1.13
2018-07-01T03:09:11.465Z,1.23
2018-07-01T03:11:41.704Z,1.10
2018-07-01T03:14:11.863Z,1.17
2018-07-01T03:16:42.135Z,1.17
2018-07-01T03:19:12.274Z,1.10
2018-07-01T03:21:42.466Z,1.17
2018-07-01T03:24:13.048Z,1.13
2018-07-01T03:26:43.286Z,1.27
2018-07-01T03:29:13.522Z,1.00
2018-07-01T03:31:43.869Z,1.20
2018-07-01T03:34:14.180Z,1.20
2018-07-01T03:36:44.363Z,1.10
2018-07-01T03:39:14.631Z,1.20
2018-07-01T03:41:44.828Z,1.20
2018-07-01T03:44:15.088Z,1.10
2018-07-01T03:46:45.295Z,1.10
2018-07-01T03:49:15.564Z,1.23
2018-07-01T03:51:45.368Z,1.40
2018-07-01T03:54:15.778Z,1.20
2018-07-01T03:56:46.022Z,1.20
2018-07-01T03:59:16.268Z,1.07
2018-07-01T04:01:46.580Z,1.20
2018-07-01T04:04:16.842Z,1.23
2018-07-01T04:06:47.006Z,1.10
2018-07-01T04:09:17.182Z,1.20
2018-07-01T04:11:47.445Z,1.30
2018-07-01T04:14:17.704Z,1.20
2018-07-01T04:16:47.824Z,1.07
2018-07-01T04:19:22.423Z,1.37
2018-07-01T04:21:52.751Z,1.37
2018-07-01T04:24:22.906Z,1.30
2018-07-01T04:26:53.204Z,1.10
2018-07-01T04:29:23.340Z,1.27
2018-07-01T04:31:53.585Z,1.20
2018-07-01T04:34:23.669Z,1.20
2018-07-01T04:36:53.983Z,1.20
2018-07-01T04:39:23.839Z,1.20
2018-07-01T04:41:54.028Z,1.03
2018-07-01T04:44:24.390Z,1.47
2018-07-01T04:46:54.663Z,1.07
2018-07-01T04:49:24.850Z,1.23
2018-07-01T04:51:55.189Z,1.30
2018-07-01T04:54:25.407Z,1.40
2018-07-01T04:56:55.662Z,1.30
2018-07-01T04:59:25.846Z,0.97
2018-07-01T05:01:56.187Z,1.17
2018-07-01T05:04:26.312Z,1.30
2018-07-01T05:06:56.511Z,1.10
2018-07-01T05:09:26.718Z,1.30
2018-07-01T05:11:56.937Z,1.30
2018-07-01T05:14:27.169Z,1.20
2018-07-01T05:16:57.664Z,1.20
2018-07-01T05:19:28.730Z,1.10
2018-07-01T05:21:58.909Z,1.30
2018-07-01T05:24:29.093Z,1.20
2018-07-01T05:26:59.425Z,1.20
2018-07-01T05:29:29.622Z,1.40
2018-07-01T05:31:59.887Z,1.23
2018-07-01T05:34:30.095Z,1.07
2018-07-01T05:37:00.309Z,0.93
2018-07-01T05:39:30.483Z,1.20
2018-07-01T05:42:00.749Z,1.30
2018-07-01T05:44:30.967Z,1.20
2018-07-01T05:47:01.203Z,1.10
2018-07-01T05:49:31.551Z,0.83
2018-07-01T05:52:01.703Z,1.00
2018-07-01T05:54:32.009Z,0.93
2018-07-01T05:57:02.285Z,1.10
2018-07-01T05:59:32.584Z,1.00
2018-07-01T06:02:02.828Z,1.00
2018-07-01T06:04:32.974Z,0.97
2018-07-01T06:07:03.143Z,1.00
2018-07-01T06:09:33.387Z,0.90
2018-07-01T06:12:03.570Z,1.10
2018-07-01T06:14:33.711Z,1.00
2018-07-01T06:17:04.020Z,0.87
2018-07-01T06:19:34.192Z,0.80
2018-07-01T06:22:04.470Z,0.80
2018-07-01T06:24:34.815Z,0.80
2018-07-01T06:27:05.118Z,1.00
2018-07-01T06:29:35.344Z,0.90
2018-07-01T06:32:05.727Z,1.17
2018-07-01T06:34:35.934Z,0.87
2018-07-01T06:37:06.275Z,0.90
2018-07-01T06:39:36.563Z,0.90
2018-07-01T06:42:06.931Z,1.07
2018-07-01T06:44:37.186Z,0.80
2018-07-01T06:47:07.551Z,0.70
2018-07-01T06:49:37.795Z,1.00
2018-07-01T06:52:08.138Z,0.80
2018-07-01T06:54:38.398Z,0.80
2018-07-01T06:57:08.725Z,0.80
2018-07-01T06:59:38.925Z,0.70
2018-07-01T07:02:09.221Z,0.80
2018-07-01T07:04:39.548Z,0.80
2018-07-01T07:07:09.904Z,0.80
2018-07-01T07:09:40.147Z,0.70
2018-07-01T07:12:10.461Z,0.63
2018-07-01T07:14:40.714Z,0.80
2018-07-01T07:17:10.930Z,0.70
2018-07-01T07:19:41.330Z,0.60
2018-07-01T07:22:11.589Z,0.87
2018-07-01T07:24:41.846Z,0.73
2018-07-01T07:27:12.056Z,0.70
2018-07-01T07:29:42.373Z,0.57
2018-07-01T07:32:12.639Z,0.73
2018-07-01T07:34:43.172Z,0.80
2018-07-01T07:37:13.403Z,0.70
2018-07-01T07:39:43.645Z,0.60
2018-07-01T07:42:13.888Z,0.70
2018-07-01T07:44:44.112Z,0.83
2018-07-01T07:47:14.386Z,0.57
2018-07-01T07:49:51.170Z,0.87
2018-07-01T07:52:21.463Z,0.60
2018-07-01T07:54:51.792Z,0.83
2018-07-01T07:57:22.095Z,0.83
2018-07-01T07:59:52.338Z,0.85
2018-07-01T08:02:22.629Z,0.90
2018-07-01T08:04:52.892Z,0.90
2018-07-01T08:07:23.619Z,0.67
2018-07-01T08:09:53.928Z,0.70
2018-07-01T08:12:24.235Z,0.60
2018-07-01T08:14:54.580Z,1.20
2018-07-01T08:17:24.837Z,0.70
2018-07-01T08:19:55.150Z,0.68
2018-07-01T08:22:25.336Z,0.85
2018-07-01T08:24:55.555Z,0.90
2018-07-01T08:27:25.871Z,0.62
2018-07-01T08:29:56.211Z,0.72
2018-07-01T08:32:26.453Z,0.80
2018-07-01T08:34:56.660Z,0.60
2018-07-01T08:37:26.961Z,0.68
2018-07-01T08:39:57.191Z,0.72
2018-07-01T08:42:32.273Z,0.70
2018-07-01T08:45:04.334Z,0.65
2018-07-01T08:47:35.009Z,0.68
2018-07-01T08:50:06.807Z,0.90
2018-07-01T08:52:37.167Z,0.70
2018-07-01T08:55:06.990Z,0.75
2018-07-01T08:57:37.251Z,0.60
2018-07-01T09:00:08.668Z,0.70
2018-07-01T09:02:38.956Z,0.95
2018-07-01T09:05:10.349Z,0.68
2018-07-01T09:07:40.627Z,0.78
2018-07-01T09:10:10.935Z,0.80
2018-07-01T09:12:41.325Z,0.80
2018-07-01T09:15:11.676Z,0.65
2018-07-01T09:17:41.980Z,0.68
2018-07-01T09:20:12.248Z,1.00
2018-07-01T09:22:42.566Z,0.70
2018-07-01T09:25:12.851Z,0.60
2018-07-01T09:27:43.077Z,0.80
2018-07-01T09:30:13.406Z,0.62
2018-07-01T09:32:43.701Z,0.88
2018-07-01T09:35:13.971Z,0.80
2018-07-01T09:37:44.187Z,0.70
2018-07-01T09:40:14.471Z,0.80
2018-07-01T09:42:44.703Z,0.68
2018-07-01T09:45:14.947Z,0.70
2018-07-01T09:47:45.205Z,0.70
2018-07-01T09:50:15.501Z,0.70
2018-07-01T09:52:45.700Z,0.60
2018-07-01T09:55:16.037Z,0.65
2018-07-01T09:57:46.331Z,0.60
2018-07-01T10:00:16.688Z,1.10
2018-07-01T10:02:46.921Z,0.68
2018-07-01T10:05:17.150Z,0.70
2018-07-01T10:07:47.390Z,0.70
2018-07-01T10:10:17.531Z,0.90
2018-07-01T10:12:47.837Z,0.75
2018-07-01T10:15:18.099Z,0.72
2018-07-01T10:17:48.358Z,0.60
2018-07-01T10:20:18.518Z,0.75
2018-07-01T10:22:48.749Z,0.70
2018-07-01T10:25:18.971Z,0.70
2018-07-01T10:27:49.371Z,0.70
2018-07-01T10:30:19.980Z,0.72
2018-07-01T10:32:51.026Z,0.78
2018-07-01T10:35:21.313Z,0.80
2018-07-01T10:37:51.529Z,0.70
2018-07-01T10:40:21.763Z,0.60
2018-07-01T10:42:51.988Z,0.68
2018-07-01T10:45:22.236Z,0.75
2018-07-01T10:47:52.822Z,0.75
2018-07-01T10:50:23.257Z,0.70
2018-07-01T10:52:53.481Z,0.80
2018-07-01T10:55:23.759Z,0.70
2018-07-01T10:57:54.002Z,0.68
2018-07-01T11:00:24.308Z,0.80
2018-07-01T11:02:54.635Z,0.82
2018-07-01T11:05:24.849Z,0.70
2018-07-01T11:07:55.566Z,0.75
2018-07-01T11:10:25.936Z,0.80
2018-07-01T11:12:56.648Z,0.82
2018-07-01T11:15:27.126Z,0.70
2018-07-01T11:17:57.432Z,0.80
2018-07-01T11:20:27.752Z,0.68
2018-07-01T11:23:00.035Z,0.90
2018-07-01T11:25:30.382Z,0.68
2018-07-01T11:28:00.993Z,0.72
2018-07-01T11:30:31.297Z,0.90
2018-07-01T11:33:01.163Z,0.80
2018-07-01T11:35:31.788Z,0.60
2018-07-01T11:38:02.124Z,0.90
2018-07-01T11:40:32.385Z,0.70
2018-07-01T11:43:02.713Z,0.70
2018-07-01T11:45:33.108Z,0.70
2018-07-01T11:48:03.475Z,0.90
2018-07-01T11:50:33.864Z,0.68
2018-07-01T11:53:04.343Z,0.70
2018-07-01T11:55:34.632Z,0.78
2018-07-01T11:58:05.105Z,0.70
2018-07-01T12:00:35.449Z,0.72
2018-07-01T12:03:05.921Z,0.72
2018-07-01T12:05:36.393Z,0.80
2018-07-01T12:08:06.987Z,0.70
2018-07-01T12:10:37.248Z,0.82
2018-07-01T12:13:07.549Z,1.00
2018-07-01T12:15:37.887Z,0.90
2018-07-01T12:18:08.206Z,0.90
2018-07-01T12:20:38.686Z,0.85
2018-07-01T12:23:09.025Z,0.80
2018-07-01T12:25:39.319Z,0.80
2018-07-01T12:28:09.495Z,0.75
2018-07-01T12:30:39.855Z,0.90
2018-07-01T12:33:10.132Z,0.78
2018-07-01T12:35:40.370Z,0.70
2018-07-01T12:38:10.641Z,0.78
2018-07-01T12:40:40.821Z,0.82
2018-07-01T12:43:11.130Z,0.78
2018-07-01T12:45:41.406Z,0.80
2018-07-01T12:48:11.662Z,0.70
2018-07-01T12:50:42.004Z,0.60
2018-07-01T12:53:12.323Z,0.82
2018-07-01T12:55:42.654Z,0.82
2018-07-01T12:58:12.908Z,0.80
2018-07-01T13:00:43.242Z,0.88
2018-07-01T13:03:13.554Z,0.90
2018-07-01T13:05:43.926Z,0.80
2018-07-01T13:08:14.245Z,0.80
2018-07-01T13:10:44.527Z,0.70
2018-07-01T13:13:15.288Z,0.78
2018-07-01T13:15:45.754Z,0.90
2018-07-01T13:18:16.028Z,0.65
2018-07-01T13:20:46.322Z,0.70
2018-07-01T13:23:16.660Z,0.90
2018-07-01T13:25:47.050Z,0.82
2018-07-01T13:28:17.304Z,0.72
2018-07-01T13:30:47.966Z,0.82
2018-07-01T13:33:18.210Z,0.80
2018-07-01T13:35:48.560Z,0.68
2018-07-01T13:38:18.779Z,0.78
2018-07-01T13:40:49.084Z,0.78
2018-07-01T13:43:19.274Z,0.70
2018-07-01T13:45:49.486Z,0.80
2018-07-01T13:48:19.735Z,0.80
2018-07-01T13:50:49.991Z,0.90
2018-07-01T13:53:20.220Z,0.70
2018-07-01T13:55:50.452Z,0.80
2018-07-01T13:58:20.634Z,0.70
2018-07-01T14:00:50.961Z,1.00
2018-07-01T14:03:21.203Z,0.80
2018-07-01T14:05:51.465Z,0.70
2018-07-01T14:08:21.672Z,0.90
2018-07-01T14:10:51.858Z,0.78
2018-07-01T14:13:22.096Z,0.95
2018-07-01T14:15:52.313Z,0.70
2018-07-01T14:18:22.599Z,0.80
2018-07-01T14:20:53.207Z,0.88
2018-07-01T14:23:23.379Z,0.78
2018-07-01T14:25:53.565Z,0.90
2018-07-01T14:28:24.035Z,1.00
2018-07-01T14:30:54.360Z,0.80
2018-07-01T14:33:24.496Z,0.78
2018-07-01T14:35:54.998Z,0.80
2018-07-01T14:38:25.209Z,0.88
2018-07-01T14:40:56.317Z,0.88
2018-07-01T14:43:26.542Z,0.90
2018-07-01T14:45:56.719Z,0.80
2018-07-01T14:48:26.974Z,0.70
2018-07-01T14:50:57.569Z,0.70
2018-07-01T14:53:27.824Z,0.78
2018-07-01T14:55:58.196Z,1.00
2018-07-01T14:58:28.429Z,0.72
2018-07-01T15:00:58.640Z,0.75
2018-07-01T15:03:28.898Z,0.70
2018-07-01T15:06:06.867Z,0.70
2018-07-01T15:08:37.374Z,0.90
2018-07-01T15:11:07.809Z,0.90
2018-07-01T15:13:38.033Z,0.72
2018-07-01T15:16:08.277Z,0.70
2018-07-01T15:18:38.528Z,0.70
2018-07-01T15:21:08.857Z,0.70
2018-07-01T15:23:39.014Z,0.80
2018-07-01T15:26:09.241Z,0.80
2018-07-01T15:28:39.522Z,1.07
2018-07-01T15:31:10.510Z,0.75
2018-07-01T15:33:41.160Z,0.72
2018-07-01T15:36:11.287Z,0.90
2018-07-01T15:38:41.542Z,0.80
2018-07-01T15:41:11.807Z,0.82
2018-07-01T15:43:42.072Z,0.80
2018-07-01T15:46:12.267Z,0.80
2018-07-01T15:48:42.515Z,0.70
2018-07-01T15:51:12.711Z,0.70
2018-07-01T15:53:42.898Z,0.80
2018-07-01T15:56:13.091Z,0.85
2018-07-01T15:58:43.273Z,0.75
2018-07-01T16:01:13.530Z,0.80
2018-07-01T16:03:43.758Z,0.78
2018-07-01T16:06:13.970Z,0.82
2018-07-01T16:08:44.100Z,0.70
2018-07-01T16:11:14.346Z,1.00
2018-07-01T16:13:44.556Z,0.75
2018-07-01T16:16:14.813Z,0.72
2018-07-01T16:18:45.202Z,0.70
2018-07-01T16:21:15.326Z,0.90
2018-07-01T16:23:45.496Z,0.80
2018-07-01T16:26:20.704Z,0.57
2018-07-01T16:28:55.869Z,0.93
2018-07-01T16:31:25.991Z,0.60
2018-07-01T16:33:56.215Z,0.93
2018-07-01T16:36:26.934Z,0.80
2018-07-01T16:38:57.103Z,0.80
2018-07-01T16:41:27.428Z,1.00
2018-07-01T16:43:57.948Z,0.88
2018-07-01T16:46:28.205Z,0.80
2018-07-01T16:48:58.410Z,0.85
2018-07-01T16:51:28.578Z,0.78
2018-07-01T16:53:58.917Z,0.90
2018-07-01T16:56:29.136Z,0.80
2018-07-01T16:58:59.348Z,0.90
2018-07-01T17:01:29.526Z,0.70
2018-07-01T17:03:59.701Z,0.60
2018-07-01T17:06:29.931Z,0.70
2018-07-01T17:09:00.101Z,0.80
2018-07-01T17:11:30.229Z,0.70
2018-07-01T17:13:59.980Z,0.90
2018-07-01T17:16:30.231Z,0.80
2018-07-01T17:19:00.487Z,0.90
2018-07-01T17:21:30.694Z,0.80
2018-07-01T17:24:00.826Z,0.80
2018-07-01T17:26:30.965Z,0.70
2018-07-01T17:29:01.173Z,0.70
2018-07-01T17:31:36.778Z,0.90
2018-07-01T17:34:07.059Z,1.00
2018-07-01T17:36:37.289Z,0.80
2018-07-01T17:39:10.168Z,0.75
2018-07-01T17:41:41.011Z,0.85
2018-07-01T17:44:11.425Z,0.60
2018-07-01T17:46:41.579Z,0.80
2018-07-01T17:49:11.776Z,0.70
2018-07-01T17:51:42.026Z,0.90
2018-07-01T17:54:12.191Z,0.70
2018-07-01T17:56:42.451Z,0.90
2018-07-01T17:59:12.673Z,0.80
2018-07-01T18:01:42.872Z,0.60
2018-07-01T18:04:12.995Z,0.70
2018-07-01T18:06:43.177Z,0.60
2018-07-01T18:09:13.451Z,0.82
2018-07-01T18:11:43.645Z,0.80
2018-07-01T18:14:13.848Z,0.90
2018-07-01T18:16:44.136Z,0.70
2018-07-01T18:19:14.420Z,0.78
2018-07-01T18:21:52.998Z,0.90
2018-07-01T18:24:42.851Z,0.68
2018-07-01T18:26:45.384Z,0.80
2018-07-01T18:29:18.696Z,0.70
2018-07-01T18:31:46.003Z,0.70
2018-07-01T18:34:16.229Z,0.68
2018-07-01T18:36:46.569Z,1.25
2018-07-01T18:39:16.828Z,0.70
2018-07-01T18:41:47.108Z,0.85
2018-07-01T18:44:17.395Z,0.82
2018-07-01T18:46:47.743Z,0.70
2018-07-01T18:49:18.098Z,0.62
2018-07-01T18:51:48.403Z,0.60
2018-07-01T18:54:18.626Z,0.70
2018-07-01T18:56:49.032Z,1.00
2018-07-01T18:59:19.294Z,0.90
2018-07-01T19:01:49.639Z,0.80
2018-07-01T19:04:19.869Z,0.80
2018-07-01T19:06:50.235Z,0.72
2018-07-01T19:09:20.489Z,0.80
2018-07-01T19:11:50.961Z,0.93
2018-07-01T19:14:21.196Z,0.70
2018-07-01T19:16:51.483Z,0.98
2018-07-01T19:19:21.731Z,0.72
2018-07-01T19:21:51.979Z,0.80
2018-07-01T19:24:22.163Z,0.90
2018-07-01T19:26:52.365Z,1.00
2018-07-01T19:29:22.634Z,1.00
2018-07-01T19:31:52.887Z,1.12
2018-07-01T19:34:23.058Z,1.30
2018-07-01T19:36:53.442Z,1.52
2018-07-01T19:39:23.743Z,1.50
2018-07-01T19:41:54.065Z,1.65
2018-07-01T19:44:24.252Z,1.32
2018-07-01T19:46:54.509Z,1.30
2018-07-01T19:49:24.738Z,1.55
2018-07-01T19:51:54.971Z,1.50
2018-07-01T19:54:25.448Z,1.50
2018-07-01T19:56:55.701Z,1.42
2018-07-01T19:59:26.029Z,1.40
2018-07-01T20:01:56.379Z,1.50
2018-07-01T20:04:26.700Z,1.30
2018-07-01T20:06:56.975Z,1.20
2018-07-01T20:09:27.273Z,1.40
2018-07-01T20:11:57.602Z,1.20
2018-07-01T20:14:32.358Z,1.15
2018-07-01T20:17:02.828Z,1.22
2018-07-01T20:19:33.095Z,1.00
2018-07-01T20:22:03.360Z,1.02
2018-07-01T20:24:33.611Z,1.42
2018-07-01T20:27:03.883Z,1.10
2018-07-01T20:29:34.167Z,0.90
2018-07-01T20:32:04.427Z,0.88
2018-07-01T20:34:34.691Z,0.82
2018-07-01T20:37:05.051Z,1.10
2018-07-01T20:39:35.331Z,1.15
2018-07-01T20:42:05.653Z,1.00
2018-07-01T20:44:35.817Z,1.10
2018-07-01T20:47:06.209Z,1.00
2018-07-01T20:49:36.411Z,1.00
2018-07-01T20:52:06.853Z,1.00
2018-07-01T20:54:37.109Z,1.00
2018-07-01T20:57:07.506Z,0.80
2018-07-01T20:59:37.747Z,0.82
2018-07-01T21:02:08.155Z,0.80
2018-07-01T21:04:39.043Z,0.72
2018-07-01T21:07:15.731Z,0.80
2018-07-01T21:09:46.026Z,0.90
2018-07-01T21:12:16.300Z,0.90
2018-07-01T21:14:46.574Z,0.80
2018-07-01T21:17:16.869Z,0.90
2018-07-01T21:19:47.118Z,0.70
2018-07-01T21:22:17.414Z,0.70
2018-07-01T21:24:47.665Z,0.90
2018-07-01T21:27:17.941Z,0.80
2018-07-01T21:29:48.105Z,0.90
2018-07-01T21:32:18.238Z,0.73
2018-07-01T21:34:48.349Z,0.70
2018-07-01T21:37:18.446Z,0.73
2018-07-01T21:39:48.740Z,0.60
2018-07-01T21:42:18.995Z,0.80
2018-07-01T21:44:49.298Z,0.80
2018-07-01T21:47:19.458Z,0.90
2018-07-01T21:49:49.849Z,0.90
2018-07-01T21:52:20.167Z,0.70
2018-07-01T21:54:50.448Z,0.90
2018-07-01T21:57:20.710Z,0.70
2018-07-01T21:59:50.876Z,1.00
2018-07-01T22:02:21.138Z,0.73
2018-07-01T22:04:51.310Z,0.80
2018-07-01T22:07:21.568Z,0.60
2018-07-01T22:09:51.962Z,0.60
2018-07-01T22:12:38.586Z,0.80
2018-07-01T22:15:27.198Z,0.60
2018-07-01T22:17:58.090Z,0.60
2018-07-01T22:20:28.436Z,0.57
2018-07-01T22:22:58.618Z,0.80
2018-07-01T22:25:28.927Z,0.70
2018-07-01T22:27:59.125Z,0.57
2018-07-01T22:30:29.252Z,0.80
2018-07-01T22:32:59.539Z,0.60
2018-07-01T22:35:29.671Z,0.83
2018-07-01T22:37:59.929Z,0.70
2018-07-01T22:40:30.064Z,0.70
2018-07-01T22:43:00.211Z,0.80
2018-07-01T22:45:29.931Z,0.70
2018-07-01T22:48:00.111Z,0.80
2018-07-01T22:50:30.213Z,0.90
2018-07-01T22:53:00.443Z,0.77
2018-07-01T22:55:30.677Z,0.60
2018-07-01T22:58:00.909Z,0.80
2018-07-01T23:00:31.215Z,0.90
2018-07-01T23:03:14.686Z,0.70
2018-07-01T23:05:44.857Z,0.90
2018-07-01T23:08:15.070Z,0.70
2018-07-01T23:10:45.236Z,0.70
2018-07-01T23:13:15.383Z,0.57
2018-07-01T23:15:45.591Z,0.67
2018-07-01T23:18:15.847Z,0.90
2018-07-01T23:20:46.039Z,0.63
2018-07-01T23:23:16.219Z,0.80
2018-07-01T23:25:46.414Z,1.00
2018-07-01T23:28:16.679Z,0.80
2018-07-01T23:30:46.838Z,0.63
2018-07-01T23:33:17.018Z,0.90
2018-07-01T23:35:47.957Z,0.83
2018-07-01T23:38:18.213Z,0.73
2018-07-01T23:40:48.474Z,0.90
2018-07-01T23:43:18.829Z,0.80
2018-07-01T23:45:49.091Z,0.90
2018-07-01T23:48:19.266Z,0.80
2018-07-01T23:50:49.517Z,0.80
2018-07-01T23:53:19.771Z,0.90
2018-07-01T23:55:50.047Z,0.80
2018-07-01T23:58:20.326Z,0.60
